サンパウロ/グアルーリョス の空港の天気 - METARとTAF

グアルーリョス国際空港 (サンパウロ) ( SBGR / GRU ) - ブラジル サンパウロ州サンパウロ市
飛行場実況気象(Metar)
観測時間12/16 14:00 BRST (12/16 16:00 UTC)
風向・風速南南西 3m/s
視程10km以上
天気現象
なし
気温29℃
湿度52%
気圧1016hPa
METARSBGR 161600Z 21005KT CAVOK 29/18 Q1016
過去の天気等 Google飛行場航空写真 Wunderground天気予報

過去48時間のMETAR

飛行場予報(TAF)
発表時間: 12/16 07:15 BRST (12/16 09:15 UTC)
予報対象時間: 16日10時 BRST ~ 17日16時 BRST
風向・風速静穏
視程10km以上
なし
16日11時 BRST ~ 16日13時 BRST に徐々に
風向・風速西北西 3m/s
全天の4割程度の雲 雲底高度 1,370m
16日15時 BRST から 確率 40% で
風向・風速南 5m/s
天気現象雷雨
全天の4割程度の雲 雲底高度 1,370m
少しの積乱雲 雲底高度 1,520m
16日19時 BRST ~ 16日21時 BRST に徐々に
風向・風速南東 3m/s
視程10km以上
なし
16日23時 BRST ~ 17日1時 BRST に徐々に
風向・風速北東 2m/s
17日6時 BRST から 確率 30% で
視程6,000m
全天の8割程度の雲 雲底高度 340m
17日10時 BRST ~ 17日12時 BRST に徐々に
風向・風速北 4m/s
全天の4割程度の雲 雲底高度 1,070m
TAF SBGR 160915Z 1612/1718 00000KT CAVOK TN18/1708Z TX32/1717Z
BECMG 1613/1615 30005KT SCT045
PROB40 1617/1621 18010KT TSRA SCT045 FEW050CB
BECMG 1621/1623 13005KT CAVOK
BECMG 1701/1703 05003KT
PROB30 1708/1710 6000 BKN011
BECMG 1712/1714 35007KT SCT035 RMK PGN